createdAt,value
2023-03-02T00:00:59.471Z,51.38
2023-03-02T00:03:29.021Z,53.63
2023-03-02T00:05:57.842Z,56.60
2023-03-02T00:08:26.025Z,50.33
2023-03-02T00:10:54.519Z,55.20
2023-03-02T00:13:22.670Z,51.40
2023-03-02T00:15:50.498Z,56.88
2023-03-02T00:18:18.630Z,58.60
2023-03-02T00:20:47.704Z,50.75
2023-03-02T00:23:16.534Z,51.25
2023-03-02T00:25:44.287Z,50.53
2023-03-02T00:28:12.034Z,54.08
2023-03-02T00:30:40.246Z,54.25
2023-03-02T00:33:08.031Z,53.20
2023-03-02T00:35:38.904Z,55.88
2023-03-02T00:38:08.266Z,56.33
2023-03-02T00:40:36.784Z,55.78
2023-03-02T00:43:04.781Z,53.50
2023-03-02T00:45:32.688Z,56.67
2023-03-02T00:48:00.502Z,51.10
2023-03-02T00:50:28.288Z,48.90
2023-03-02T00:52:56.175Z,49.63
2023-03-02T00:55:25.236Z,52.10
2023-03-02T00:57:55.830Z,52.50
2023-03-02T01:00:24.024Z,49.40
2023-03-02T01:02:52.531Z,53.38
2023-03-02T01:05:20.574Z,50.13
2023-03-02T01:07:48.293Z,50.92
2023-03-02T01:10:16.421Z,54.08
2023-03-02T01:12:45.966Z,49.50
2023-03-02T01:15:14.050Z,46.78
2023-03-02T01:17:43.820Z,53.10
2023-03-02T01:20:12.761Z,56.40
2023-03-02T01:22:40.632Z,51.63
2023-03-02T01:25:08.918Z,49.72
2023-03-02T01:27:36.741Z,55.60
2023-03-02T01:30:07.320Z,53.33
2023-03-02T01:32:35.150Z,50.40
2023-03-02T01:35:02.940Z,49.08
2023-03-02T01:37:30.627Z,52.53
2023-03-02T01:39:58.400Z,53.97
2023-03-02T01:42:26.161Z,56.67
2023-03-02T01:44:57.455Z,51.75
2023-03-02T01:47:31.923Z,48.88
2023-03-02T01:50:02.724Z,50.25
2023-03-02T01:52:33.048Z,52.70
2023-03-02T01:55:05.009Z,50.95
2023-03-02T02:00:07.106Z,75.93
2023-03-02T02:02:37.465Z,58.63
2023-03-02T02:05:05.749Z,55.30
2023-03-02T02:07:33.641Z,53.25
2023-03-02T02:10:02.424Z,53.33
2023-03-02T02:12:30.436Z,55.45
2023-03-02T02:15:00.799Z,50.03
2023-03-02T02:17:30.062Z,57.35
2023-03-02T02:20:10.893Z,55.30
2023-03-02T02:22:52.021Z,51.97
2023-03-02T02:25:31.817Z,53.97
2023-03-02T02:28:01.626Z,54.80
2023-03-02T02:30:29.645Z,53.83
2023-03-02T02:32:59.528Z,54.42
2023-03-02T02:35:30.409Z,54.97
2023-03-02T02:38:03.554Z,54.55
2023-03-02T02:40:46.269Z,54.10
2023-03-02T02:43:18.886Z,58.30
2023-03-02T02:45:48.053Z,55.83
2023-03-02T02:48:19.234Z,51.13
2023-03-02T02:50:48.035Z,62.63
2023-03-02T02:53:19.311Z,54.17
2023-03-02T02:55:49.428Z,64.40
2023-03-02T02:58:28.876Z,55.08
2023-03-02T03:00:56.892Z,59.08
2023-03-02T03:03:31.284Z,55.40
2023-03-02T03:06:01.192Z,54.80
2023-03-02T03:08:52.986Z,57.38
2023-03-02T03:11:24.776Z,61.85
2023-03-02T03:14:00.167Z,55.63
2023-03-02T03:16:31.004Z,59.80
2023-03-02T03:19:05.513Z,62.85
2023-03-02T03:21:33.762Z,58.90
2023-03-02T03:24:01.523Z,64.63
2023-03-02T03:26:29.240Z,59.40
2023-03-02T03:28:58.744Z,64.60
2023-03-02T03:31:28.008Z,56.28
2023-03-02T03:34:00.525Z,59.83
2023-03-02T03:36:29.303Z,58.50
2023-03-02T03:38:57.620Z,55.88
2023-03-02T03:41:26.492Z,60.78
2023-03-02T03:43:54.629Z,61.30
2023-03-02T03:46:23.769Z,62.53
2023-03-02T03:48:51.511Z,60.42
2023-03-02T03:51:19.381Z,61.47
2023-03-02T03:53:57.230Z,62.83
2023-03-02T03:56:25.059Z,73.38
2023-03-02T03:58:53.971Z,61.78
2023-03-02T04:01:23.120Z,63.63
2023-03-02T04:03:50.869Z,66.00
2023-03-02T04:06:19.014Z,63.40
2023-03-02T04:08:46.761Z,63.28
2023-03-02T04:11:14.515Z,64.95
2023-03-02T04:13:42.263Z,61.63
2023-03-02T04:16:10.056Z,60.38
2023-03-02T04:18:39.313Z,67.80
2023-03-02T04:21:07.105Z,60.70
2023-03-02T04:23:34.817Z,63.25
2023-03-02T04:26:05.025Z,61.75
2023-03-02T04:28:33.049Z,63.30
2023-03-02T04:31:00.779Z,64.07
2023-03-02T04:33:28.557Z,64.57
2023-03-02T04:35:58.052Z,65.82
2023-03-02T04:38:29.678Z,68.03
2023-03-02T04:40:57.803Z,65.20
2023-03-02T04:43:26.673Z,61.80
2023-03-02T04:45:54.854Z,65.55
2023-03-02T04:48:23.822Z,74.03
2023-03-02T04:50:51.964Z,65.55
2023-03-02T04:53:21.118Z,63.60
2023-03-02T04:55:49.216Z,66.85
2023-03-02T04:58:17.146Z,65.13
2023-03-02T05:00:44.920Z,63.50
2023-03-02T05:03:12.712Z,69.53
2023-03-02T05:05:40.541Z,62.60
2023-03-02T05:08:08.307Z,63.00
2023-03-02T05:10:37.429Z,63.70
2023-03-02T05:13:05.717Z,65.50
2023-03-02T05:15:35.492Z,71.90
2023-03-02T05:18:04.169Z,63.92
2023-03-02T05:20:32.310Z,63.17
2023-03-02T05:23:01.737Z,65.95
2023-03-02T05:25:31.612Z,65.70
2023-03-02T05:28:01.569Z,69.07
2023-03-02T05:30:30.973Z,71.05
2023-03-02T05:32:59.408Z,70.78
2023-03-02T05:35:27.391Z,64.20
2023-03-02T05:37:55.258Z,71.93
2023-03-02T05:40:23.392Z,64.95
2023-03-02T05:42:51.519Z,69.32
2023-03-02T05:45:24.468Z,70.50
2023-03-02T05:47:52.465Z,68.78
2023-03-02T05:50:20.513Z,74.47
2023-03-02T05:52:48.508Z,73.28
2023-03-02T05:55:17.946Z,67.95
2023-03-02T05:57:46.105Z,71.18
2023-03-02T06:00:15.430Z,68.88
2023-03-02T06:02:44.877Z,68.07
2023-03-02T06:05:14.882Z,65.10
2023-03-02T06:07:42.770Z,66.35
2023-03-02T06:10:12.843Z,63.38
2023-03-02T06:12:41.385Z,69.75
2023-03-02T06:15:10.512Z,72.35
2023-03-02T06:17:38.256Z,69.88
2023-03-02T06:20:10.835Z,67.80
2023-03-02T06:22:41.195Z,66.38
2023-03-02T06:25:10.365Z,70.30
2023-03-02T06:27:39.628Z,66.20
2023-03-02T06:30:09.682Z,73.05
2023-03-02T06:32:37.639Z,66.90
2023-03-02T06:35:08.345Z,69.05
2023-03-02T06:37:36.687Z,69.28
2023-03-02T06:40:08.533Z,69.22
2023-03-02T06:42:36.328Z,67.38
2023-03-02T06:45:04.322Z,76.00
2023-03-02T06:47:33.370Z,66.50
2023-03-02T06:50:01.612Z,70.57
2023-03-02T06:52:30.767Z,75.25
2023-03-02T06:54:58.488Z,70.65
2023-03-02T06:57:33.567Z,74.25
2023-03-02T07:00:02.099Z,76.20
2023-03-02T07:02:29.822Z,91.00
2023-03-02T07:04:57.721Z,72.63
2023-03-02T07:07:25.865Z,72.65
2023-03-02T07:09:55.079Z,68.45
2023-03-02T07:12:22.936Z,68.68
2023-03-02T07:14:50.778Z,76.15
2023-03-02T07:17:18.546Z,71.57
2023-03-02T07:19:46.325Z,66.55
2023-03-02T07:22:14.073Z,73.00
2023-03-02T07:24:43.518Z,70.30
2023-03-02T07:27:14.059Z,75.93
2023-03-02T07:29:42.223Z,66.05
2023-03-02T07:32:12.464Z,71.15
2023-03-02T07:34:40.816Z,76.45
2023-03-02T07:37:08.655Z,72.22
2023-03-02T07:39:36.501Z,71.05
2023-03-02T07:42:07.009Z,74.05
2023-03-02T07:44:36.305Z,77.15
2023-03-02T07:47:04.040Z,77.03
2023-03-02T07:49:32.001Z,70.85
2023-03-02T07:51:59.920Z,71.93
2023-03-02T07:54:30.376Z,70.70
2023-03-02T07:56:58.170Z,68.80
2023-03-02T07:59:28.315Z,80.45
2023-03-02T08:01:58.186Z,78.13
2023-03-02T08:04:26.816Z,70.45
2023-03-02T08:06:54.584Z,69.72
2023-03-02T08:09:22.279Z,73.72
2023-03-02T08:11:50.042Z,74.30
2023-03-02T08:14:17.776Z,71.00
2023-03-02T08:16:45.555Z,66.75
2023-03-02T08:19:14.936Z,71.88
2023-03-02T08:21:42.676Z,68.30
2023-03-02T08:24:11.589Z,65.55
2023-03-02T08:26:39.944Z,64.55
2023-03-02T08:29:08.031Z,69.55
2023-03-02T08:31:36.297Z,72.07
2023-03-02T08:34:04.604Z,67.22
2023-03-02T08:36:33.889Z,78.57
2023-03-02T08:39:01.834Z,67.75
2023-03-02T08:41:30.638Z,67.90
2023-03-02T08:43:59.067Z,67.72
2023-03-02T08:46:27.310Z,75.25
2023-03-02T08:48:55.033Z,66.25
2023-03-02T08:51:24.509Z,68.40
2023-03-02T08:53:56.502Z,72.20
2023-03-02T08:58:54.713Z,64.80
2023-03-02T09:01:24.877Z,68.97
2023-03-02T09:03:53.335Z,63.25
2023-03-02T09:06:21.103Z,60.40
2023-03-02T09:08:49.394Z,62.67
2023-03-02T09:11:18.624Z,66.70
2023-03-02T09:13:46.557Z,67.85
2023-03-02T09:16:15.653Z,57.80
2023-03-02T09:18:44.315Z,60.17
2023-03-02T09:21:12.095Z,66.68
2023-03-02T09:23:40.245Z,64.78
2023-03-02T09:26:08.325Z,65.45
2023-03-02T09:28:38.322Z,63.22
2023-03-02T09:31:08.517Z,64.55
2023-03-02T09:33:37.264Z,60.58
2023-03-02T09:36:07.602Z,69.38
2023-03-02T09:38:35.380Z,69.90
2023-03-02T09:41:29.943Z,67.78
2023-03-02T09:44:10.823Z,66.63
2023-03-02T09:46:45.330Z,63.15
2023-03-02T09:49:22.373Z,61.15
2023-03-02T09:52:03.638Z,62.08
2023-03-02T09:54:32.344Z,69.93
2023-03-02T09:57:00.946Z,69.72
2023-03-02T09:59:32.256Z,62.65
2023-03-02T10:02:06.583Z,64.82
2023-03-02T10:04:39.647Z,69.90
2023-03-02T10:07:13.883Z,66.28
2023-03-02T10:09:42.550Z,67.10
2023-03-02T10:12:31.813Z,62.30
2023-03-02T10:15:07.459Z,63.65
2023-03-02T10:17:44.806Z,61.70
2023-03-02T10:20:17.545Z,63.13
2023-03-02T10:22:49.407Z,62.75
2023-03-02T10:25:30.822Z,66.22
2023-03-02T10:28:03.513Z,71.25
2023-03-02T10:30:36.468Z,66.40
2023-03-02T10:33:10.593Z,64.70
2023-03-02T10:35:39.486Z,63.50
2023-03-02T10:38:13.402Z,61.17
2023-03-02T10:40:44.647Z,63.08
2023-03-02T10:43:18.976Z,62.47
2023-03-02T10:45:59.898Z,60.47
2023-03-02T10:48:27.742Z,67.43
2023-03-02T10:50:56.820Z,68.20
2023-03-02T10:53:24.581Z,62.67
2023-03-02T10:55:54.897Z,64.75
2023-03-02T10:58:26.983Z,68.28
2023-03-02T11:03:29.916Z,65.82
2023-03-02T11:06:00.438Z,72.47
2023-03-02T11:08:29.670Z,64.07
2023-03-02T11:11:00.949Z,58.95
2023-03-02T11:16:02.215Z,65.00
2023-03-02T11:18:34.380Z,62.17
2023-03-02T11:21:05.612Z,64.60
2023-03-02T11:23:47.277Z,61.53
2023-03-02T11:26:22.781Z,59.75
2023-03-02T11:29:00.649Z,58.80
2023-03-02T11:31:37.799Z,65.88
2023-03-02T11:34:30.306Z,63.58
2023-03-02T11:39:43.512Z,66.40
2023-03-02T11:42:20.718Z,67.88
2023-03-02T11:44:49.627Z,71.75
2023-03-02T11:47:21.270Z,69.35
2023-03-02T11:49:54.120Z,67.32
2023-03-02T11:52:24.711Z,74.60
2023-03-02T11:54:56.102Z,66.22
2023-03-02T11:57:29.100Z,66.43
2023-03-02T11:59:58.919Z,61.50
2023-03-02T12:02:28.551Z,69.30
2023-03-02T12:05:04.107Z,67.10
2023-03-02T12:07:32.442Z,68.40
2023-03-02T12:10:03.057Z,66.97
2023-03-02T12:12:35.832Z,65.03
2023-03-02T12:15:03.798Z,68.13
2023-03-02T12:17:35.238Z,61.63
2023-03-02T12:20:34.199Z,70.32
2023-03-02T12:23:23.726Z,69.63
2023-03-02T12:26:03.466Z,68.40
2023-03-02T12:28:33.987Z,72.03
2023-03-02T12:31:08.980Z,65.63
2023-03-02T12:33:47.619Z,67.57
2023-03-02T12:36:19.749Z,67.70
2023-03-02T12:41:50.793Z,65.22
2023-03-02T12:44:31.996Z,70.53
2023-03-02T12:47:02.976Z,61.63
2023-03-02T12:49:46.158Z,65.85
2023-03-02T12:52:24.335Z,65.90
2023-03-02T12:55:01.443Z,71.43
2023-03-02T12:57:29.665Z,68.43
2023-03-02T12:59:59.327Z,69.80
2023-03-02T13:02:30.095Z,65.22
2023-03-02T13:05:00.653Z,65.65
2023-03-02T13:07:31.116Z,69.88
2023-03-02T13:10:00.352Z,62.13
2023-03-02T13:12:29.590Z,66.95
2023-03-02T13:14:59.728Z,64.60
2023-03-02T13:17:30.908Z,63.13
2023-03-02T13:20:02.136Z,69.57
2023-03-02T13:22:31.050Z,66.22
2023-03-02T13:25:02.067Z,69.85
2023-03-02T13:27:31.147Z,74.57
2023-03-02T13:30:10.626Z,67.78
2023-03-02T13:32:42.023Z,66.40
2023-03-02T13:35:24.418Z,67.80
2023-03-02T13:38:00.243Z,66.75
2023-03-02T13:40:40.013Z,59.33
2023-03-02T13:43:21.639Z,71.25
2023-03-02T13:45:54.191Z,70.78
2023-03-02T13:48:22.073Z,77.70
2023-03-02T13:50:58.165Z,71.43
2023-03-02T13:53:26.583Z,71.70
2023-03-02T13:55:55.565Z,67.38
2023-03-02T13:58:25.557Z,73.40
2023-03-02T14:00:53.959Z,62.42
2023-03-02T14:03:28.569Z,63.95
2023-03-02T14:05:59.706Z,63.78
2023-03-02T14:08:27.790Z,71.35
2023-03-02T14:10:58.669Z,69.93
2023-03-02T14:13:31.408Z,68.85
2023-03-02T14:15:59.252Z,65.13
2023-03-02T14:18:37.429Z,77.68
2023-03-02T14:21:07.595Z,68.20
2023-03-02T14:23:35.326Z,61.17
2023-03-02T14:26:07.780Z,62.78
2023-03-02T14:28:36.381Z,59.13
2023-03-02T14:31:04.232Z,61.60
2023-03-02T14:33:32.050Z,61.30
2023-03-02T14:36:00.236Z,63.88
2023-03-02T14:38:30.298Z,57.92
2023-03-02T14:40:58.289Z,59.30
2023-03-02T14:43:26.240Z,61.80
2023-03-02T14:45:54.578Z,63.03
2023-03-02T14:48:22.804Z,58.90
2023-03-02T14:50:51.380Z,56.92
2023-03-02T14:53:23.432Z,54.45
2023-03-02T14:58:25.208Z,59.80
2023-03-02T15:00:53.272Z,60.55
2023-03-02T15:03:25.462Z,65.13
2023-03-02T15:06:00.869Z,64.43
2023-03-02T15:08:30.371Z,56.80
2023-03-02T15:10:59.536Z,58.17
2023-03-02T15:13:27.297Z,59.03
2023-03-02T15:15:55.393Z,62.42
2023-03-02T15:18:23.110Z,64.70
2023-03-02T15:20:50.922Z,62.35
2023-03-02T15:23:18.669Z,62.30
2023-03-02T15:25:46.443Z,67.90
2023-03-02T15:28:15.568Z,61.92
2023-03-02T15:30:43.331Z,70.30
2023-03-02T15:33:11.138Z,69.88
2023-03-02T15:35:40.178Z,64.65
2023-03-02T15:38:07.939Z,68.75
2023-03-02T15:40:37.099Z,65.10
2023-03-02T15:43:04.849Z,71.03
2023-03-02T15:45:34.100Z,69.53
2023-03-02T15:48:01.853Z,70.72
2023-03-02T15:50:30.001Z,72.82
2023-03-02T15:52:58.417Z,69.53
2023-03-02T15:55:27.099Z,74.43
2023-03-02T15:57:58.032Z,66.30
2023-03-02T16:00:25.979Z,71.22
2023-03-02T16:02:55.113Z,71.90
2023-03-02T16:05:22.910Z,77.45
2023-03-02T16:07:50.620Z,72.68
2023-03-02T16:10:21.068Z,70.95
2023-03-02T16:12:49.307Z,67.75
2023-03-02T16:15:17.202Z,64.32
2023-03-02T16:17:44.937Z,71.22
2023-03-02T16:20:14.658Z,69.90
2023-03-02T16:22:42.436Z,71.00
2023-03-02T16:25:10.633Z,78.75
2023-03-02T16:27:38.453Z,76.00
2023-03-02T16:30:07.177Z,68.72
2023-03-02T16:32:34.909Z,69.82
2023-03-02T16:35:02.643Z,73.32
2023-03-02T16:37:32.003Z,81.55
2023-03-02T16:39:59.821Z,75.70
2023-03-02T16:42:30.262Z,80.18
2023-03-02T16:44:58.109Z,66.55
2023-03-02T16:47:25.969Z,71.90
2023-03-02T16:49:53.759Z,75.30
2023-03-02T16:52:23.005Z,71.55
2023-03-02T16:54:52.235Z,75.00
2023-03-02T16:57:20.471Z,74.43
2023-03-02T16:59:48.250Z,70.20
2023-03-02T17:02:16.621Z,67.47
2023-03-02T17:04:44.672Z,74.03
2023-03-02T17:07:12.514Z,70.45
2023-03-02T17:09:41.505Z,73.20
2023-03-02T17:12:10.725Z,73.25
2023-03-02T17:14:38.474Z,71.03
2023-03-02T17:17:06.285Z,72.80
2023-03-02T17:19:34.441Z,68.97
2023-03-02T17:22:03.291Z,64.93
2023-03-02T17:24:31.073Z,95.88
2023-03-02T17:26:58.834Z,74.25
2023-03-02T17:29:28.273Z,69.97
2023-03-02T17:31:56.506Z,68.93
2023-03-02T17:34:28.616Z,76.65
2023-03-02T17:36:56.361Z,70.55
2023-03-02T17:39:24.283Z,68.80
2023-03-02T17:41:52.008Z,72.60
2023-03-02T17:44:19.877Z,69.93
2023-03-02T17:46:49.023Z,71.32
2023-03-02T17:49:16.853Z,67.07
2023-03-02T17:51:44.703Z,74.30
2023-03-02T17:54:12.606Z,63.47
2023-03-02T17:56:40.453Z,68.57
2023-03-02T17:59:08.704Z,74.32
2023-03-02T18:01:36.660Z,74.35
2023-03-02T18:04:06.200Z,73.97
2023-03-02T18:06:34.461Z,72.93
2023-03-02T18:09:02.236Z,68.82
2023-03-02T18:11:30.061Z,80.90
2023-03-02T18:13:58.632Z,82.95
2023-03-02T18:16:29.342Z,82.32
2023-03-02T18:18:57.469Z,82.60
2023-03-02T18:21:26.646Z,75.32
2023-03-02T18:23:54.925Z,77.53
2023-03-02T18:26:22.858Z,82.82
2023-03-02T18:28:50.739Z,82.40
2023-03-02T18:31:19.370Z,79.45
2023-03-02T18:33:47.698Z,80.63
2023-03-02T18:36:16.052Z,84.47
2023-03-02T18:38:45.447Z,82.15
2023-03-02T18:41:14.367Z,81.20
2023-03-02T18:43:43.580Z,87.28
2023-03-02T18:46:19.838Z,92.15
2023-03-02T18:48:49.644Z,84.78
2023-03-02T18:51:18.486Z,87.38
2023-03-02T18:53:47.872Z,81.70
2023-03-02T18:56:16.403Z,94.40
2023-03-02T18:58:44.724Z,85.60
2023-03-02T19:01:12.673Z,90.07
2023-03-02T19:03:41.881Z,97.25
2023-03-02T19:06:10.080Z,87.95
2023-03-02T19:08:38.313Z,91.90
2023-03-02T19:11:07.666Z,90.97
2023-03-02T19:13:35.678Z,84.32
2023-03-02T19:16:04.588Z,88.90
2023-03-02T19:18:33.228Z,86.07
2023-03-02T19:21:01.296Z,93.40
2023-03-02T19:23:29.072Z,91.78
2023-03-02T19:25:57.382Z,88.22
2023-03-02T19:28:27.657Z,90.07
2023-03-02T19:30:55.532Z,89.72
2023-03-02T19:33:24.887Z,89.47
2023-03-02T19:35:53.061Z,92.43
2023-03-02T19:38:22.604Z,97.13
2023-03-02T19:40:51.029Z,92.28
2023-03-02T19:43:20.233Z,89.10
2023-03-02T19:45:49.511Z,80.88
2023-03-02T19:48:17.296Z,93.03
2023-03-02T19:50:45.510Z,98.97
2023-03-02T19:53:15.913Z,105.85
2023-03-02T19:55:43.986Z,97.05
2023-03-02T19:58:17.238Z,89.90
2023-03-02T20:00:45.583Z,86.38
2023-03-02T20:03:15.214Z,93.80
2023-03-02T20:05:43.091Z,101.47
2023-03-02T20:08:11.350Z,91.50
2023-03-02T20:10:41.789Z,91.45
2023-03-02T20:13:10.308Z,91.20
2023-03-02T20:15:40.346Z,99.53
2023-03-02T20:18:10.758Z,95.13
2023-03-02T20:20:41.168Z,97.55
2023-03-02T20:23:09.123Z,105.80
2023-03-02T20:25:37.538Z,95.60
2023-03-02T20:28:06.743Z,97.38
2023-03-02T20:30:37.900Z,96.57
2023-03-02T20:33:07.035Z,105.72
2023-03-02T20:35:37.791Z,99.40
2023-03-02T20:38:08.144Z,102.95
2023-03-02T20:40:37.351Z,104.25
2023-03-02T20:43:06.309Z,102.28
2023-03-02T20:45:34.883Z,107.03
2023-03-02T20:48:03.266Z,102.43
2023-03-02T20:50:33.168Z,98.82
2023-03-02T20:53:01.217Z,109.65
2023-03-02T20:55:30.432Z,104.65
2023-03-02T20:57:58.650Z,95.22
2023-03-02T21:00:28.976Z,107.30
2023-03-02T21:02:58.200Z,103.25
2023-03-02T21:05:27.530Z,103.45
2023-03-02T21:07:56.388Z,102.03
2023-03-02T21:10:28.301Z,108.30
2023-03-02T21:15:27.177Z,100.38
2023-03-02T21:17:55.654Z,112.70
2023-03-02T21:20:24.288Z,103.00
2023-03-02T21:22:52.017Z,114.32
2023-03-02T21:25:20.127Z,106.13
2023-03-02T21:27:48.404Z,117.45
2023-03-02T21:30:20.061Z,114.20
2023-03-02T21:32:48.738Z,121.07
2023-03-02T21:35:19.855Z,116.03
2023-03-02T21:37:49.937Z,115.60
2023-03-02T21:40:19.842Z,118.93
2023-03-02T21:42:47.769Z,116.72
2023-03-02T21:45:18.689Z,123.63
2023-03-02T21:47:46.922Z,123.55
2023-03-02T21:50:18.504Z,120.03
2023-03-02T21:52:46.293Z,113.93
2023-03-02T21:55:15.125Z,120.10
2023-03-02T21:57:43.519Z,109.95
2023-03-02T22:00:22.147Z,117.00
2023-03-02T22:02:50.134Z,112.28
2023-03-02T22:05:18.140Z,122.15
2023-03-02T22:07:46.084Z,109.25
2023-03-02T22:10:23.497Z,109.35
2023-03-02T22:12:55.987Z,117.30
2023-03-02T22:15:25.222Z,125.93
2023-03-02T22:17:52.984Z,118.78
2023-03-02T22:20:21.445Z,120.68
2023-03-02T22:22:50.823Z,118.50
2023-03-02T22:25:20.151Z,118.60
2023-03-02T22:27:48.466Z,126.35
2023-03-02T22:30:22.424Z,117.00
2023-03-02T22:32:51.667Z,115.38
2023-03-02T22:35:24.035Z,124.05
2023-03-02T22:37:55.186Z,111.55
2023-03-02T22:40:29.182Z,111.00
2023-03-02T22:43:11.004Z,109.38
2023-03-02T22:45:40.467Z,105.22
2023-03-02T22:48:16.185Z,107.80
2023-03-02T22:50:45.443Z,108.47
2023-03-02T22:53:34.171Z,112.93
2023-03-02T22:56:04.346Z,103.05
2023-03-02T22:58:43.779Z,114.03
2023-03-02T23:01:22.020Z,113.35
2023-03-02T23:03:53.119Z,120.43
2023-03-02T23:06:26.229Z,112.32
2023-03-02T23:08:55.100Z,107.18
2023-03-02T23:11:24.352Z,114.60
2023-03-02T23:13:53.773Z,125.90
2023-03-02T23:16:24.476Z,111.93
2023-03-02T23:18:56.248Z,108.18
2023-03-02T23:21:28.273Z,95.90
2023-03-02T23:23:56.433Z,112.75
2023-03-02T23:26:24.200Z,124.18
2023-03-02T23:28:52.367Z,119.28
2023-03-02T23:31:21.238Z,104.00
2023-03-02T23:33:49.685Z,114.25
2023-03-02T23:36:21.233Z,115.55
2023-03-02T23:38:49.384Z,120.00
2023-03-02T23:41:18.344Z,129.23
2023-03-02T23:43:46.511Z,130.20
2023-03-02T23:46:14.564Z,118.90
2023-03-02T23:48:42.874Z,119.20
2023-03-02T23:51:11.007Z,112.70
2023-03-02T23:53:40.306Z,120.00
2023-03-02T23:56:08.429Z,123.38
2023-03-02T23:58:36.256Z,130.13
